Latest Coastal Weather Observations for Marion Reef

IDQ60701

Issued at 2:15 pm EST Thursday 2 October 2014 (issued every 10 minutes, with the page automatically refreshed every 10 minutes)

About coastal observations | Map of coastal stations | Coastal observations for QLD | Marine services | Other Formats
Station Details ID: 200704 Name: MARION REEF Lat: -19.10 Lon: 152.39 Height: 2.0 m
Data from the previous 72 hours. | See also: Recent months for locations in Queensland
Date/Time
EST
Temp

°C
Wind Pressure Rain
since 9am
mm
Weather Cloud Vis
km
Sea
Height
m
Swell
Dir
 
Speed
knots
Gust
knots
hPa Trend Height
m
Period
s
Dir
02/02:00pm 23.3 ESE 17 19 1015.6 - - - - - - - - -
02/01:30pm 23.2 ESE 17 20 1015.9 - - - - - - - - -
02/01:00pm 23.4 ESE 18 21 1016.0 - - - - - - - - -
02/12:30pm 23.2 SE 18 21 1016.5 - - - - - - - - -
02/12:00pm 23.2 ESE 16 19 1016.6 - - - - - - - - -
02/11:30am 23.0 ESE 16 19 1017.0 - - - - - - - - -
02/11:00am 23.2 SE 15 19 1017.4 - - - - - - - - -
02/10:30am 23.3 SE 17 20 1017.8 - - - - - - - - -
02/10:00am 23.2 ESE 17 20 1017.9 - - - - - - - - -
02/09:30am 23.1 E 14 17 1017.0 - - - - - - - - -
02/09:00am 23.2 E 15 18 1016.8 - - - - - - - - -
02/08:30am 23.3 E 13 16 1017.0 - - - - - - - - -
02/08:00am 23.3 E 13 17 1016.8 - - - - - - - - -
02/07:30am 23.3 E 12 15 1016.6 - - - - - - - - -
02/07:00am 23.2 E 14 17 1016.4 - - - - - - - - -
02/06:30am 23.1 E 13 17 1016.1 - - - - - - - - -
02/06:00am 23.0 E 13 16 1015.6 - - - - - - - - -
02/05:30am 22.9 ESE 13 17 1015.5 - - - - - - - - -
02/05:00am 23.0 E 13 15 1015.1 - - - - - - - - -
02/04:30am 23.1 E 12 15 1014.7 - - - - - - - - -
02/04:00am 22.9 ESE 13 16 1014.4 - - - - - - - - -
02/03:30am 22.8 ESE 12 15 1014.4 - - - - - - - - -
02/03:00am 23.0 E 12 16 1014.2 - - - - - - - - -
02/02:30am 23.1 E 12 16 1014.4 - - - - - - - - -
02/02:00am 22.9 E 12 15 1014.4 - - - - - - - - -
02/01:30am 22.8 ESE 12 14 1015.0 - - - - - - - - -
02/01:00am 22.8 SE 13 15 1015.2 - - - - - - - - -
02/12:30am 23.0 SE 12 15 1015.7 - - - - - - - - -
02/12:00am 23.2 SE 13 17 1015.8 - - - - - - - - -
 
Date/Time
EST
Temp

°C
Wind Pressure Rain
since 9am
mm
Weather Cloud Vis
km
Sea
Height
m
Swell
Dir
 
Speed
knots
Gust
knots
hPa Trend Height
m
Period
s
Dir
01/11:30pm 23.2 SE 16 19 1016.1 - - - - - - - - -
01/11:00pm 23.0 ESE 15 17 1016.2 - - - - - - - - -
01/10:30pm 23.3 ESE 14 17 1016.4 - - - - - - - - -
01/10:00pm 23.1 ESE 15 18 1016.3 - - - - - - - - -
01/09:30pm 23.4 ESE 15 17 1016.3 - - - - - - - - -
01/09:00pm 23.2 ESE 15 17 1016.2 - - - - - - - - -
01/08:30pm 23.1 ESE 15 19 1016.1 - - - - - - - - -
01/08:00pm 22.9 ESE 13 15 1015.8 - - - - - - - - -
01/07:30pm 23.0 ESE 13 17 1015.8 - - - - - - - - -
01/07:00pm 23.1 ESE 13 17 1015.6 - - - - - - - - -
01/06:30pm 23.0 ESE 16 17 1015.5 - - - - - - - - -
01/06:00pm 23.0 SE 15 17 1015.3 - - - - - - - - -
01/05:30pm 23.1 SE 14 18 1015.1 - - - - - - - - -
01/05:00pm 23.0 ESE 15 19 1014.9 - - - - - - - - -
01/04:30pm 23.0 SE 15 18 1014.9 - - - - - - - - -
01/04:00pm 22.8 SE 15 18 1014.7 - - - - - - - - -
01/03:30pm 22.4 SSE 10 12 1014.9 - - - - - - - - -
01/03:00pm 22.3 SSE 8 11 1014.8 - - - - - - - - -
01/02:30pm 22.6 SE 17 21 1015.1 - - - - - - - - -
01/02:00pm 22.0 ESE 14 18 1015.2 - - - - - - - - -
01/01:30pm 22.3 ESE 17 20 1015.6 - - - - - - - - -
01/01:00pm 22.1 ESE 18 21 1015.7 - - - - - - - - -
01/12:30pm 23.4 SE 15 17 1016.2 - - - - - - - - -
01/12:00pm 22.9 ESE 11 14 1016.5 - - - - - - - - -
01/11:30am 22.9 ESE 13 16 1017.0 - - - - - - - - -
01/11:00am 23.3 ESE 13 15 1017.3 - - - - - - - - -
01/10:30am 23.1 E 11 13 1017.7 - - - - - - - - -
01/10:00am 23.6 SE 10 12 1017.8 - - - - - - - - -
01/09:30am 23.0 ESE 7 12 1018.2 - - - - - - - - -
01/09:00am 23.1 E 9 12 1018.2 - - - - - - - - -
01/08:30am 23.0 ESE 12 15 1018.4 - - - - - - - - -
01/08:00am 23.1 SE 11 13 1018.4 - - - - - - - - -
01/07:30am 23.0 E 13 16 1018.1 - - - - - - - - -
01/07:00am 23.2 E 12 16 1017.9 - - - - - - - - -
01/06:30am 23.0 E 14 17 1017.6 - - - - - - - - -
01/06:00am 22.9 ESE 13 17 1017.1 - - - - - - - - -
01/05:30am 23.0 E 13 17 1017.0 - - - - - - - - -
01/05:00am 22.8 ESE 14 17 1016.8 - - - - - - - - -
01/04:30am 22.4 E 13 18 1016.5 - - - - - - - - -
01/04:00am 22.0 E 10 13 1016.3 - - - - - - - - -
01/03:30am 22.6 E 14 16 1016.2 - - - - - - - - -
01/03:00am 22.7 ESE 14 16 1016.3 - - - - - - - - -
01/02:30am 23.2 ESE 12 17 1016.3 - - - - - - - - -
01/02:00am 23.4 E 15 17 1016.2 - - - - - - - - -
01/01:30am 22.8 E 11 15 1016.8 - - - - - - - - -
01/01:00am 22.9 ESE 15 17 1017.0 - - - - - - - - -
01/12:30am 23.4 SE 12 15 1017.5 - - - - - - - - -
01/12:00am 23.3 ESE 14 16 1017.5 - - - - - - - - -
 
Date/Time
EST
Temp

°C
Wind Pressure Rain
since 9am
mm
Weather Cloud Vis
km
Sea
Height
m
Swell
Dir
 
Speed
knots
Gust
knots
hPa Trend Height
m
Period
s
Dir
30/11:30pm 23.3 E 11 15 1017.8 - - - - - - - - -
30/11:00pm 23.2 ESE 12 14 1018.0 - - - - - - - - -
30/10:30pm 23.2 ESE 15 20 1018.3 - - - - - - - - -
30/10:00pm 23.3 ESE 15 17 1018.1 - - - - - - - - -
30/09:30pm 23.1 E 15 19 1018.2 - - - - - - - - -
30/09:00pm 23.3 ESE 12 15 1018.2 - - - - - - - - -
30/08:30pm 23.3 ESE 15 17 1018.0 - - - - - - - - -
30/08:00pm 23.4 E 13 16 1017.8 - - - - - - - - -
30/07:30pm 23.1 ESE 14 18 1017.7 - - - - - - - - -
30/07:00pm 23.3 E 15 18 1017.3 - - - - - - - - -
30/06:30pm 23.2 ESE 15 18 1017.2 - - - - - - - - -
30/06:00pm 23.1 ESE 17 20 1016.9 - - - - - - - - -
30/05:30pm 23.1 ESE 16 19 1016.6 - - - - - - - - -
30/05:00pm 23.5 ESE 15 20 1016.3 - - - - - - - - -
30/04:30pm 23.3 ESE 17 19 1016.1 - - - - - - - - -
30/04:00pm 23.2 E 16 19 1015.8 - - - - - - - - -
30/03:30pm 23.4 ESE 15 19 1015.8 - - - - - - - - -
30/03:00pm 23.2 ESE 16 20 1015.7 - - - - - - - - -
30/02:30pm 23.2 ESE 16 20 1015.8 - - - - - - - - -
30/02:00pm 23.5 E 14 17 1015.8 - - - - - - - - -
30/01:30pm 23.3 ESE 14 17 1016.4 - - - - - - - - -
30/01:00pm 23.2 E 15 17 1016.4 - - - - - - - - -
30/12:30pm 23.1 E 17 20 1017.0 - - - - - - - - -
30/12:00pm 23.2 E 16 18 1017.4 - - - - - - - - -
30/11:30am 23.4 E 15 20 1017.9 - - - - - - - - -
30/11:00am 22.7 E 10 16 1018.3 - - - - - - - - -
30/10:30am 22.9 E 15 18 1018.9 - - - - - - - - -
30/10:00am 23.0 E 16 20 1018.9 - - - - - - - - -
30/09:30am 22.7 E 13 16 1019.3 - - - - - - - - -
30/09:00am 21.7 ESE 17 24 1019.4 - - - - - - - - -
30/08:30am 22.5 ENE 11 14 1019.3 - - - - - - - - -
30/08:20am 22.6 ENE 14 17 1019.4 - - - - - - - - -
30/08:00am 22.4 E 19 24 1019.3 - - - - - - - - -
30/07:49am 22.3 E 20 23 1019.2 - - - - - - - - -
30/07:30am 22.8 SE 17 20 1018.9 - - - - - - - - -
30/07:00am 22.7 SE 15 18 1018.5 - - - - - - - - -
30/06:30am 22.7 ESE 18 21 1018.4 - - - - - - - - -
30/06:00am 22.7 ESE 17 21 1017.9 - - - - - - - - -
30/05:30am 22.6 ESE 18 22 1017.6 - - - - - - - - -
30/05:00am 22.8 SE 18 21 1017.4 - - - - - - - - -
30/04:30am 22.6 SE 18 22 1017.1 - - - - - - - - -
30/04:00am 22.6 ESE 20 27 1016.9 - - - - - - - - -
30/03:30am 22.4 SE 19 23 1016.8 - - - - - - - - -
30/03:00am 22.3 SE 20 25 1016.7 - - - - - - - - -
30/02:30am 22.7 SE 20 24 1016.8 - - - - - - - - -
30/02:00am 22.7 ESE 16 21 1016.9 - - - - - - - - -
30/01:30am 22.7 SE 13 18 1017.2 - - - - - - - - -
30/01:00am 22.8 ESE 11 14 1017.4 - - - - - - - - -
30/12:30am 22.6 ESE 12 15 1017.8 - - - - - - - - -
30/12:00am 22.6 ESE 18 22 1017.9 - - - - - - - - -
 
Date/Time
EST
Temp

°C
Wind Pressure Rain
since 9am
mm
Weather Cloud Vis
km
Sea
Height
m
Swell
Dir
 
Speed
knots
Gust
knots
hPa Trend Height
m
Period
s
Dir
29/11:30pm 22.6 ESE 17 21 1018.3 - - - - - - - - -
29/11:00pm 22.9 ESE 18 22 1018.3 - - - - - - - - -
29/10:30pm 22.7 SE 19 22 1018.4 - - - - - - - - -
29/10:00pm 22.9 SE 17 21 1018.3 - - - - - - - - -
29/09:30pm 22.7 ESE 16 19 1018.3 - - - - - - - - -
29/09:00pm 22.8 SE 15 18 1018.1 - - - - - - - - -
29/08:30pm 22.9 SE 19 22 1018.1 - - - - - - - - -
29/08:00pm 22.7 SE 18 21 1017.7 - - - - - - - - -
29/07:30pm 22.8 ESE 19 23 1017.5 - - - - - - - - -
29/07:00pm 23.1 ESE 20 25 1017.1 - - - - - - - - -
29/06:30pm 23.0 ESE 19 23 1016.7 - - - - - - - - -
29/06:00pm 23.2 SE 17 21 1016.2 - - - - - - - - -
29/05:30pm 23.0 SE 15 18 1015.9 - - - - - - - - -
29/05:00pm 23.3 SE 16 20 1015.7 - - - - - - - - -
29/04:30pm 23.3 SE 17 20 1015.7 - - - - - - - - -
29/04:00pm 23.1 ESE 19 22 1015.4 - - - - - - - - -
29/03:30pm 23.1 SE 16 20 1015.4 - - - - - - - - -
29/03:00pm 23.1 SE 17 21 1015.4 - - - - - - - - -
29/02:30pm 23.4 SE 17 19 1015.5 - - - - - - - - -

Other Formats:

Comma delimited format used in spreadsheet applications
http://www.bom.gov.au/fwo/IDQ60701/IDQ60701.94298.axf

JavaScript Object Notation format (JSON) in row-major order
http://www.bom.gov.au/fwo/IDQ60701/IDQ60701.94298.json